createdAt,value
2019-01-23T00:02:26.614Z,0.90
2019-01-23T00:05:08.928Z,0.80
2019-01-23T00:07:43.921Z,0.90
2019-01-23T00:10:29.035Z,0.90
2019-01-23T00:13:08.310Z,0.80
2019-01-23T00:15:47.890Z,0.80
2019-01-23T00:18:25.207Z,0.80
2019-01-23T00:20:59.208Z,0.80
2019-01-23T00:23:35.391Z,0.70
2019-01-23T00:26:15.311Z,0.70
2019-01-23T00:28:54.104Z,0.70
2019-01-23T00:31:32.344Z,0.70
2019-01-23T00:34:15.856Z,0.70
2019-01-23T00:36:50.471Z,0.60
2019-01-23T00:39:31.285Z,0.50
2019-01-23T00:42:09.639Z,0.40
2019-01-23T00:44:42.243Z,0.40
2019-01-23T00:47:21.902Z,0.40
2019-01-23T00:49:58.676Z,0.30
2019-01-23T00:52:35.262Z,0.30
2019-01-23T00:55:25.803Z,0.30
2019-01-23T00:58:02.267Z,0.30
2019-01-23T01:00:34.144Z,0.20
2019-01-23T01:03:06.209Z,0.20
2019-01-23T01:05:38.286Z,0.10
2019-01-23T01:08:18.862Z,0.20
2019-01-23T01:10:51.385Z,0.10
2019-01-23T01:13:32.448Z,0.20
2019-01-23T01:16:08.712Z,0.20
2019-01-23T01:18:45.450Z,0.20
2019-01-23T01:21:15.319Z,0.20
2019-01-23T01:23:43.016Z,0.20
2019-01-23T01:26:14.868Z,0.20
2019-01-23T01:28:55.823Z,0.20
2019-01-23T01:31:25.570Z,0.20
2019-01-23T01:34:01.499Z,0.20
2019-01-23T01:36:39.582Z,0.30
2019-01-23T01:39:16.822Z,0.30
2019-01-23T01:41:56.229Z,0.20
2019-01-23T01:44:39.250Z,0.20
2019-01-23T01:47:12.891Z,0.10
2019-01-23T01:49:57.763Z,0.10
2019-01-23T01:52:38.348Z,0.10
2019-01-23T01:55:19.201Z,0.00
2019-01-23T01:57:58.226Z,-0.10
2019-01-23T02:00:31.568Z,-0.20
2019-01-23T02:03:08.234Z,-0.30
2019-01-23T02:05:46.687Z,-0.30
2019-01-23T02:08:26.757Z,-0.40
2019-01-23T02:11:16.555Z,-0.40
2019-01-23T02:13:51.737Z,-0.40
2019-01-23T02:16:27.810Z,-0.40
2019-01-23T02:19:01.283Z,-0.40
2019-01-23T02:21:33.913Z,-0.40
2019-01-23T02:24:18.645Z,-0.40
2019-01-23T02:26:56.157Z,-0.30
2019-01-23T02:29:37.784Z,-0.40
2019-01-23T02:32:14.391Z,-0.30
2019-01-23T02:34:49.455Z,-0.30
2019-01-23T02:37:30.608Z,-0.30
2019-01-23T02:40:26.519Z,-0.30
2019-01-23T02:43:00.663Z,-0.30
2019-01-23T02:45:41.301Z,-0.20
2019-01-23T02:48:18.766Z,-0.30
2019-01-23T02:50:53.847Z,-0.20
2019-01-23T02:53:34.611Z,-0.20
2019-01-23T02:59:22.424Z,-0.20
2019-01-23T03:02:16.285Z,-0.10
2019-01-23T03:04:58.628Z,-0.10
2019-01-23T03:08:07.036Z,-0.10
2019-01-23T03:10:56.337Z,-0.10
2019-01-23T03:13:37.920Z,-0.10
2019-01-23T03:16:23.656Z,-0.10
2019-01-23T03:19:04.443Z,-0.10
2019-01-23T03:21:44.834Z,-0.10
2019-01-23T03:24:22.526Z,-0.10
2019-01-23T03:27:07.588Z,-0.10
2019-01-23T03:29:48.759Z,-0.10
2019-01-23T03:32:33.606Z,-0.10
2019-01-23T03:35:09.521Z,-0.10
2019-01-23T03:38:10.292Z,-0.10
2019-01-23T03:44:22.053Z,-0.10
2019-01-23T03:46:58.104Z,0.00
2019-01-23T03:49:45.625Z,0.00
2019-01-23T03:52:31.411Z,-0.10
2019-01-23T03:55:21.076Z,0.00
2019-01-23T03:58:24.115Z,0.00
2019-01-23T04:01:09.525Z,-0.10
2019-01-23T04:03:56.846Z,-0.10
2019-01-23T04:06:49.162Z,-0.10
2019-01-23T04:09:43.091Z,-0.10
2019-01-23T04:12:32.495Z,-0.10
2019-01-23T04:15:18.668Z,-0.10
2019-01-23T04:18:05.310Z,-0.10
2019-01-23T04:20:59.709Z,-0.10
2019-01-23T04:23:50.386Z,-0.20
2019-01-23T04:26:36.747Z,-0.20
2019-01-23T04:32:37.942Z,-0.30
2019-01-23T04:35:29.626Z,-0.30
2019-01-23T04:38:30.033Z,-0.30
2019-01-23T04:41:33.151Z,-0.40
2019-01-23T04:44:16.649Z,-0.40
2019-01-23T04:47:02.239Z,-0.40
2019-01-23T04:49:47.200Z,-0.40
2019-01-23T04:52:46.164Z,-0.40
2019-01-23T04:55:29.418Z,-0.40
2019-01-23T04:58:15.224Z,-0.30
2019-01-23T05:00:50.284Z,-0.50
2019-01-23T05:03:32.588Z,-0.50
2019-01-23T05:06:31.345Z,-0.50
2019-01-23T05:09:08.542Z,-0.50
2019-01-23T05:12:05.583Z,-0.50
2019-01-23T05:14:44.097Z,-0.50
2019-01-23T05:17:33.408Z,-0.50
2019-01-23T05:20:40.759Z,-0.50
2019-01-23T05:23:11.289Z,-0.40
2019-01-23T05:25:51.006Z,-0.30
2019-01-23T05:28:35.892Z,-0.30
2019-01-23T05:31:32.435Z,-0.30
2019-01-23T05:34:15.856Z,-0.20
2019-01-23T05:37:06.160Z,-0.20
2019-01-23T05:42:45.794Z,-0.20
2019-01-23T05:45:30.090Z,-0.20
2019-01-23T05:48:09.499Z,-0.20
2019-01-23T05:50:48.205Z,-0.10
2019-01-23T05:53:28.913Z,-0.20
2019-01-23T05:56:13.985Z,-0.20
2019-01-23T05:58:58.708Z,-0.20
2019-01-23T06:01:41.039Z,-0.10
2019-01-23T06:04:19.953Z,-0.20
2019-01-23T06:06:59.310Z,-0.10
2019-01-23T06:09:43.040Z,-0.20
2019-01-23T06:12:30.999Z,-0.20
2019-01-23T06:15:11.003Z,-0.20
2019-01-23T06:18:04.803Z,-0.20
2019-01-23T06:20:45.089Z,-0.20
2019-01-23T06:23:26.120Z,-0.20
2019-01-23T06:26:08.822Z,-0.20
2019-01-23T06:29:08.374Z,-0.10
2019-01-23T06:31:46.494Z,-0.10
2019-01-23T06:34:30.613Z,-0.10
2019-01-23T06:37:17.274Z,-0.10
2019-01-23T06:40:04.690Z,-0.10
2019-01-23T06:43:06.097Z,-0.20
2019-01-23T06:46:02.952Z,-0.20
2019-01-23T06:48:47.487Z,-0.20
2019-01-23T06:51:32.876Z,-0.20
2019-01-23T06:54:18.978Z,-0.20
2019-01-23T06:56:59.948Z,-0.30
2019-01-23T06:59:59.289Z,-0.20
2019-01-23T07:02:55.110Z,-0.20
2019-01-23T07:05:58.360Z,-0.20
2019-01-23T07:08:43.822Z,-0.20
2019-01-23T07:11:34.320Z,-0.20
2019-01-23T07:14:35.260Z,-0.10
2019-01-23T07:17:19.255Z,-0.30
2019-01-23T07:35:58.820Z,-0.60
2019-01-23T07:37:29.178Z,-0.60
2019-01-23T07:55:23.097Z,-0.60
2019-01-23T07:58:28.255Z,-0.60
2019-01-23T08:01:39.951Z,-0.60
2019-01-23T08:04:48.948Z,-0.60
2019-01-23T08:25:07.666Z,-0.30
2019-01-23T08:36:21.097Z,-0.10
2019-01-23T08:39:22.693Z,-0.10
2019-01-23T08:42:36.211Z,-0.10
2019-01-23T08:45:12.295Z,0.00
2019-01-23T08:48:26.002Z,0.10
2019-01-23T08:51:12.128Z,0.10
2019-01-23T08:54:31.153Z,0.20
2019-01-23T08:58:06.191Z,0.30
2019-01-23T09:01:29.324Z,0.30
2019-01-23T09:04:47.955Z,0.30
2019-01-23T09:07:58.865Z,0.30
2019-01-23T09:11:17.012Z,0.20
2019-01-23T09:14:00.840Z,0.30
2019-01-23T09:17:04.500Z,0.20
2019-01-23T09:19:55.372Z,0.20
2019-01-23T09:22:34.444Z,0.10
2019-01-23T09:25:25.927Z,0.10
2019-01-23T09:28:16.115Z,0.20
2019-01-23T09:31:08.212Z,0.20
2019-01-23T09:34:14.610Z,0.20
2019-01-23T09:37:36.718Z,0.30
2019-01-23T09:41:00.827Z,0.30
2019-01-23T09:44:12.866Z,0.40
2019-01-23T09:47:30.147Z,0.40
2019-01-23T09:50:38.678Z,0.50
2019-01-23T09:53:46.656Z,0.50
2019-01-23T09:56:22.648Z,0.40
2019-01-23T09:58:52.774Z,0.50
2019-01-23T10:01:25.550Z,0.70
2019-01-23T10:03:57.387Z,0.70
2019-01-23T10:06:34.788Z,0.80
2019-01-23T10:09:11.606Z,0.70
2019-01-23T10:11:50.570Z,0.70
2019-01-23T10:14:26.362Z,0.70
2019-01-23T10:17:12.611Z,0.70
2019-01-23T10:19:57.719Z,0.70
2019-01-23T10:22:29.386Z,0.70
2019-01-23T10:25:07.541Z,0.70
2019-01-23T10:27:49.643Z,0.70
2019-01-23T10:30:52.019Z,0.70
2019-01-23T10:33:58.207Z,0.80
2019-01-23T10:36:35.089Z,0.80
2019-01-23T10:39:06.236Z,0.90
2019-01-23T10:41:36.947Z,1.00
2019-01-23T10:44:08.105Z,1.10
2019-01-23T10:46:53.919Z,1.20
2019-01-23T10:49:21.583Z,1.30
2019-01-23T10:51:49.296Z,1.30
2019-01-23T10:54:22.829Z,1.40
2019-01-23T10:56:57.166Z,1.40
2019-01-23T10:59:27.387Z,1.40
2019-01-23T11:01:57.525Z,1.50
2019-01-23T11:04:25.125Z,1.60
2019-01-23T11:06:54.856Z,1.70
2019-01-23T11:09:22.761Z,1.70
2019-01-23T11:11:50.499Z,1.70
2019-01-23T11:14:18.333Z,1.90
2019-01-23T11:16:50.698Z,2.00
2019-01-23T11:19:23.180Z,2.00
2019-01-23T11:22:20.569Z,2.10
2019-01-23T11:24:58.356Z,1.90
2019-01-23T11:27:29.172Z,2.00
2019-01-23T11:29:59.944Z,2.00
2019-01-23T11:32:28.393Z,2.00
2019-01-23T11:34:56.095Z,1.90
2019-01-23T11:37:41.826Z,2.10
2019-01-23T11:40:29.556Z,2.30
2019-01-23T11:42:57.450Z,2.10
2019-01-23T11:45:42.511Z,2.10
2019-01-23T11:48:32.961Z,1.90
2019-01-23T11:51:15.483Z,1.80
2019-01-23T11:53:52.510Z,2.00
2019-01-23T11:56:32.135Z,2.10
2019-01-23T11:59:06.300Z,2.10
2019-01-23T12:01:38.151Z,2.00
2019-01-23T12:04:22.280Z,2.00
2019-01-23T12:06:51.480Z,2.10
2019-01-23T12:09:22.588Z,1.90
2019-01-23T12:12:19.372Z,1.90
2019-01-23T12:14:51.573Z,1.80
2019-01-23T12:17:23.324Z,1.80
2019-01-23T12:19:52.700Z,1.90
2019-01-23T12:22:20.446Z,1.80
2019-01-23T12:24:48.053Z,1.90
2019-01-23T12:27:15.663Z,2.00
2019-01-23T12:29:43.277Z,2.00
2019-01-23T12:32:41.965Z,2.10
2019-01-23T12:35:12.762Z,1.90
2019-01-23T12:37:49.886Z,2.00
2019-01-23T12:40:47.039Z,2.00
2019-01-23T12:43:23.116Z,1.80
2019-01-23T12:46:06.306Z,1.80
2019-01-23T12:51:46.440Z,1.30
2019-01-23T12:54:24.067Z,1.30
2019-01-23T12:56:58.999Z,1.20
2019-01-23T12:59:29.538Z,1.40
2019-01-23T13:01:57.242Z,1.40
2019-01-23T13:04:24.955Z,1.60
2019-01-23T13:06:54.379Z,1.90
2019-01-23T13:09:24.740Z,1.90
2019-01-23T13:11:54.248Z,2.10
2019-01-23T13:14:21.986Z,2.00
2019-01-23T13:16:55.289Z,1.90
2019-01-23T13:19:25.275Z,1.70
2019-01-23T13:21:52.991Z,1.60
2019-01-23T13:24:26.051Z,1.60
2019-01-23T13:27:12.708Z,1.40
2019-01-23T13:29:50.779Z,1.40
2019-01-23T13:32:34.520Z,1.40
2019-01-23T13:35:08.145Z,1.40
2019-01-23T13:38:15.240Z,1.30
2019-01-23T13:41:01.090Z,1.20
2019-01-23T13:43:28.816Z,1.20
2019-01-23T13:46:10.538Z,1.30
2019-01-23T13:49:03.836Z,1.40
2019-01-23T13:51:33.603Z,1.40
2019-01-23T13:54:01.844Z,1.30
2019-01-23T13:56:52.400Z,1.40
2019-01-23T13:59:20.087Z,1.40
2019-01-23T14:01:47.748Z,1.40
2019-01-23T14:04:27.234Z,1.40
2019-01-23T14:06:54.222Z,1.40
2019-01-23T14:09:24.443Z,1.50
2019-01-23T14:11:52.089Z,1.60
2019-01-23T14:14:21.637Z,1.60
2019-01-23T14:16:49.275Z,1.60
2019-01-23T14:19:16.961Z,1.60
2019-01-23T14:21:45.786Z,1.60
2019-01-23T14:24:13.389Z,1.50
2019-01-23T14:26:49.365Z,1.50
2019-01-23T14:29:19.957Z,1.50
2019-01-23T14:31:50.027Z,1.50
2019-01-23T14:34:17.813Z,1.50
2019-01-23T14:36:45.511Z,1.40
2019-01-23T14:39:17.801Z,1.40
2019-01-23T14:41:45.561Z,1.40
2019-01-23T14:44:13.211Z,1.30
2019-01-23T14:46:41.155Z,1.30
2019-01-23T14:49:08.809Z,1.40
2019-01-23T14:51:39.022Z,1.40
2019-01-23T14:54:09.253Z,1.40
2019-01-23T14:56:42.207Z,1.40
2019-01-23T14:59:09.911Z,1.30
2019-01-23T15:01:37.811Z,1.30
2019-01-23T15:04:05.456Z,1.30
2019-01-23T15:06:34.102Z,1.30
2019-01-23T15:09:01.772Z,1.20
2019-01-23T15:11:30.060Z,1.20
2019-01-23T15:13:57.794Z,1.20
2019-01-23T15:16:27.650Z,1.20
2019-01-23T15:18:58.164Z,1.20
2019-01-23T15:21:25.808Z,1.20
2019-01-23T15:23:53.672Z,1.20
2019-01-23T15:26:21.461Z,1.20
2019-01-23T15:28:49.110Z,1.20
2019-01-23T15:31:16.769Z,1.20
2019-01-23T15:33:44.472Z,1.20
2019-01-23T15:36:13.873Z,1.20
2019-01-23T15:38:41.900Z,1.20
2019-01-23T15:41:09.562Z,1.20
2019-01-23T15:43:37.220Z,1.20
2019-01-23T15:46:05.162Z,1.10
2019-01-23T15:48:32.837Z,1.20
2019-01-23T15:51:05.071Z,1.20
2019-01-23T15:53:30.103Z,1.20
2019-01-23T15:55:58.225Z,1.10
2019-01-23T15:58:45.636Z,1.10
2019-01-23T16:01:22.135Z,1.00
2019-01-23T16:03:49.829Z,1.00
2019-01-23T16:06:20.347Z,0.90
2019-01-23T16:08:48.008Z,0.90
2019-01-23T16:11:17.262Z,0.80
2019-01-23T16:13:47.242Z,0.70
2019-01-23T16:16:14.996Z,0.70
2019-01-23T16:18:42.784Z,0.70
2019-01-23T16:21:20.774Z,0.70
2019-01-23T16:23:48.511Z,0.70
2019-01-23T16:26:28.566Z,0.70
2019-01-23T16:28:59.601Z,0.70
2019-01-23T16:31:27.288Z,0.60
2019-01-23T16:33:55.110Z,0.60
2019-01-23T16:36:22.827Z,0.60
2019-01-23T16:38:50.391Z,0.50
2019-01-23T16:41:18.061Z,0.60
2019-01-23T16:43:47.970Z,0.60
2019-01-23T16:46:17.364Z,0.60
2019-01-23T16:48:45.042Z,0.60
2019-01-23T16:51:16.259Z,0.60
2019-01-23T16:53:43.947Z,0.50
2019-01-23T16:56:12.572Z,0.60
2019-01-23T16:58:41.978Z,0.60
2019-01-23T17:01:09.810Z,0.50
2019-01-23T17:03:39.111Z,0.50
2019-01-23T17:06:06.860Z,0.50
2019-01-23T17:08:47.180Z,0.40
2019-01-23T17:11:21.245Z,0.30
2019-01-23T17:13:49.534Z,0.30
2019-01-23T17:16:17.651Z,0.10
2019-01-23T17:18:45.283Z,0.10
2019-01-23T17:21:13.022Z,0.10
2019-01-23T17:23:40.608Z,0.00
2019-01-23T17:26:08.499Z,0.10
2019-01-23T17:28:41.337Z,0.00
2019-01-23T17:31:08.956Z,0.00
2019-01-23T17:33:36.685Z,0.10
2019-01-23T17:36:04.445Z,0.10
2019-01-23T17:38:32.091Z,0.10
2019-01-23T17:40:59.713Z,0.00
2019-01-23T17:43:28.315Z,0.00
2019-01-23T17:46:01.008Z,0.00
2019-01-23T17:48:33.853Z,0.00
2019-01-23T17:51:01.579Z,-0.10
2019-01-23T17:53:29.272Z,-0.10
2019-01-23T17:55:57.252Z,0.00
2019-01-23T17:58:26.099Z,0.00
2019-01-23T18:00:55.578Z,0.00
2019-01-23T18:03:23.554Z,0.10
2019-01-23T18:05:51.414Z,0.10
2019-01-23T18:08:25.885Z,0.10
2019-01-23T18:10:53.513Z,0.10
2019-01-23T18:13:21.402Z,0.10
2019-01-23T18:15:49.175Z,0.00
2019-01-23T18:18:24.547Z,0.00
2019-01-23T18:20:52.252Z,0.00
2019-01-23T18:23:19.924Z,0.00
2019-01-23T18:25:47.580Z,0.00
2019-01-23T18:28:15.282Z,-0.10
2019-01-23T18:30:53.587Z,-0.20
2019-01-23T18:33:27.476Z,-0.30
2019-01-23T18:36:17.861Z,-0.40
2019-01-23T18:39:08.973Z,-0.50
2019-01-23T18:42:08.201Z,-0.50
2019-01-23T18:45:23.861Z,-0.70
2019-01-23T18:48:16.642Z,-0.80
2019-01-23T18:51:10.681Z,-0.90
2019-01-23T18:54:03.114Z,-0.90
2019-01-23T18:56:52.391Z,-1.00
2019-01-23T19:00:27.895Z,-1.10
2019-01-23T19:07:18.118Z,-1.30
2019-01-23T19:13:56.232Z,-1.20
2019-01-23T19:17:10.699Z,-1.10
2019-01-23T19:24:28.969Z,-0.80
2019-01-23T19:28:01.262Z,-0.60
2019-01-23T19:31:29.115Z,-0.50
2019-01-23T19:35:04.025Z,-0.40
2019-01-23T19:41:32.508Z,-0.40
2019-01-23T19:44:40.289Z,-0.30
2019-01-23T19:47:45.825Z,-0.30
2019-01-23T19:51:41.983Z,-0.20
2019-01-23T19:54:43.999Z,-0.30
2019-01-23T20:01:34.548Z,-0.30
2019-01-23T20:05:04.425Z,-0.20
2019-01-23T20:20:14.865Z,-0.20
2019-01-23T20:23:37.079Z,-0.20
2019-01-23T20:27:07.185Z,-0.20
2019-01-23T20:29:57.421Z,-0.10
2019-01-23T20:41:07.650Z,-0.10
2019-01-23T20:44:46.621Z,-0.10
2019-01-23T21:02:31.650Z,0.00
2019-01-23T21:05:05.174Z,0.00
2019-01-23T21:07:52.198Z,0.10
2019-01-23T21:10:35.580Z,0.10
2019-01-23T21:13:17.133Z,0.10
2019-01-23T21:15:52.631Z,0.10
2019-01-23T21:18:50.097Z,0.20
2019-01-23T21:25:41.913Z,0.20
2019-01-23T21:28:21.192Z,0.20
2019-01-23T21:31:16.359Z,0.20
2019-01-23T21:33:49.249Z,0.30
2019-01-23T21:36:25.528Z,0.30
2019-01-23T21:38:55.247Z,0.30
2019-01-23T21:41:27.714Z,0.30
2019-01-23T21:43:57.452Z,0.30
2019-01-23T21:46:33.501Z,0.30
2019-01-23T21:49:09.615Z,0.30
2019-01-23T21:51:47.731Z,0.30
2019-01-23T21:54:42.216Z,0.30
2019-01-23T21:57:18.115Z,0.30
2019-01-23T21:59:52.476Z,0.30
2019-01-23T22:02:44.883Z,0.30
2019-01-23T22:05:18.094Z,0.40
2019-01-23T22:08:04.073Z,0.40
2019-01-23T22:10:38.095Z,0.40
2019-01-23T22:13:19.647Z,0.40
2019-01-23T22:15:59.301Z,0.40
2019-01-23T22:18:48.058Z,0.40
2019-01-23T22:21:24.072Z,0.40
2019-01-23T22:24:02.349Z,0.40
2019-01-23T22:26:35.301Z,0.30
2019-01-23T22:29:13.844Z,0.40
2019-01-23T22:31:43.327Z,0.40
2019-01-23T22:34:16.661Z,0.40
2019-01-23T22:36:47.099Z,0.40
2019-01-23T22:39:21.448Z,0.40
2019-01-23T22:41:55.566Z,0.40
2019-01-23T22:44:34.601Z,0.40
2019-01-23T22:47:18.840Z,0.40
2019-01-23T22:49:51.232Z,0.40
2019-01-23T22:52:22.198Z,0.40
2019-01-23T22:54:51.630Z,0.40
2019-01-23T22:57:34.958Z,0.40
2019-01-23T23:00:04.469Z,0.40
2019-01-23T23:02:36.839Z,0.40
2019-01-23T23:05:04.923Z,0.40
2019-01-23T23:07:40.962Z,0.40
2019-01-23T23:10:11.629Z,0.40
2019-01-23T23:12:42.022Z,0.40
2019-01-23T23:15:14.107Z,0.40
2019-01-23T23:17:46.592Z,0.40
2019-01-23T23:20:17.385Z,0.40
2019-01-23T23:22:50.584Z,0.40
2019-01-23T23:25:21.250Z,0.40
2019-01-23T23:28:02.786Z,0.40
2019-01-23T23:30:40.637Z,0.40
2019-01-23T23:33:13.640Z,0.40
2019-01-23T23:35:41.375Z,0.40
2019-01-23T23:38:14.430Z,0.40
2019-01-23T23:40:45.211Z,0.40
2019-01-23T23:43:23.562Z,0.40
2019-01-23T23:45:56.572Z,0.30
2019-01-23T23:48:38.614Z,0.40
2019-01-23T23:51:21.136Z,0.40
2019-01-23T23:53:49.723Z,0.30
2019-01-23T23:56:24.160Z,0.30
2019-01-23T23:58:52.190Z,0.30
